San Salvador de Jujuy, Argentina
Current Conditions -  °F | °C
As of 7:15 AM on Thursday 23 Oct 2014 (Local Time) from SASJ Reporting Station
Moderate Fog Moderate Fog  
Wind Chill: 64°   Ceiling: 400
Heat Index: 64°   Visibility: 0.5mi
Dew Point: 64°   Wind: 5mph
Humidity: 100%   Direction: 230°SW
Pressure: 30.06"   Gusts: NA
Location:  24.2°S, 65.3°W
Report Text: SASJ 231015Z 23004KT 0800 FG BKN004 18/18 Q1018
Loading
Personal Weather Stations






























Interactive Weather Map
Tropical Storm Tracking
New forecast layout! Learn more

10-Day Weather Forecast

Advertisements
Track Severe Weather on mobile